createdAt,value
2022-11-13T00:00:54.716Z,12.30
2022-11-13T00:06:02.096Z,12.70
2022-11-13T00:11:12.187Z,11.90
2022-11-13T00:16:19.087Z,12.30
2022-11-13T00:21:25.295Z,12.90
2022-11-13T00:26:31.214Z,12.60
2022-11-13T00:31:34.432Z,13.00
2022-11-13T00:36:37.604Z,10.40
2022-11-13T00:41:40.813Z,11.50
2022-11-13T00:46:45.023Z,10.60
2022-11-13T00:51:48.257Z,11.00
2022-11-13T00:56:51.417Z,12.20
2022-11-13T01:01:54.676Z,13.40
2022-11-13T01:06:58.811Z,12.90
2022-11-13T01:12:02.026Z,11.70
2022-11-13T01:17:05.206Z,13.80
2022-11-13T01:22:08.740Z,11.90
2022-11-13T01:27:13.465Z,13.90
2022-11-13T01:32:16.715Z,13.30
2022-11-13T01:37:20.026Z,14.10
2022-11-13T01:42:23.450Z,13.60
2022-11-13T01:47:28.247Z,14.00
2022-11-13T01:52:39.440Z,11.80
2022-11-13T01:57:42.871Z,14.00
2022-11-13T02:02:46.301Z,15.00
2022-11-13T02:07:49.478Z,14.70
2022-11-13T02:12:52.881Z,15.00
2022-11-13T02:17:58.843Z,15.80
2022-11-13T02:23:23.769Z,14.40
2022-11-13T02:28:27.262Z,13.70
2022-11-13T02:33:33.443Z,12.10
2022-11-13T02:38:40.652Z,12.40
2022-11-13T02:43:43.824Z,12.90
2022-11-13T02:48:47.024Z,13.50
2022-11-13T02:53:50.225Z,13.90
2022-11-13T02:58:54.134Z,15.10
2022-11-13T03:03:58.299Z,14.30
2022-11-13T03:09:01.750Z,13.80
2022-11-13T03:14:04.985Z,13.80
2022-11-13T03:19:09.156Z,13.20
2022-11-13T03:24:12.407Z,12.10
2022-11-13T03:29:15.741Z,13.80
2022-11-13T03:34:20.633Z,14.60
2022-11-13T03:39:23.948Z,13.90
2022-11-13T03:44:27.160Z,13.00
2022-11-13T03:49:30.408Z,15.10
2022-11-13T03:54:33.699Z,13.10
2022-11-13T03:59:36.892Z,14.40
2022-11-13T04:04:40.386Z,15.00
2022-11-13T04:09:43.531Z,16.90
2022-11-13T04:14:46.695Z,12.70
2022-11-13T04:19:49.884Z,12.80
2022-11-13T04:24:53.126Z,14.20
2022-11-13T04:29:56.420Z,11.90
2022-11-13T04:35:00.113Z,12.00
2022-11-13T04:40:04.345Z,10.00
2022-11-13T04:45:08.202Z,10.90
2022-11-13T04:50:12.424Z,9.70
2022-11-13T04:55:15.923Z,10.60
2022-11-13T05:00:19.283Z,10.10
2022-11-13T05:05:22.561Z,9.80
2022-11-13T05:10:25.776Z,10.70
2022-11-13T05:15:29.182Z,9.50
2022-11-13T05:20:32.552Z,9.10
2022-11-13T05:25:35.732Z,7.10
2022-11-13T05:30:38.916Z,9.30
2022-11-13T05:35:42.522Z,11.70
2022-11-13T05:40:45.700Z,11.20
2022-11-13T05:45:48.886Z,9.80
2022-11-13T05:50:52.108Z,13.80
2022-11-13T05:55:55.345Z,8.20
2022-11-13T06:01:22.381Z,9.90
2022-11-13T06:06:27.158Z,8.80
2022-11-13T06:11:32.099Z,8.80
2022-11-13T06:16:37.897Z,8.20
2022-11-13T06:21:41.502Z,8.70
2022-11-13T06:26:44.710Z,8.90
2022-11-13T06:31:47.899Z,7.90
2022-11-13T06:36:51.623Z,7.80
2022-11-13T06:41:54.867Z,7.60
2022-11-13T06:46:58.117Z,7.20
2022-11-13T06:52:01.329Z,6.80
2022-11-13T06:57:04.477Z,7.00
2022-11-13T07:02:10.141Z,8.20
2022-11-13T07:07:13.400Z,8.80
2022-11-13T07:12:16.669Z,8.70
2022-11-13T07:17:19.843Z,8.90
2022-11-13T07:22:23.081Z,8.90
2022-11-13T07:27:26.258Z,9.00
2022-11-13T07:32:29.504Z,8.40
2022-11-13T07:37:32.656Z,10.20
2022-11-13T07:42:36.015Z,10.10
2022-11-13T07:47:40.010Z,8.90
2022-11-13T07:52:43.271Z,8.70
2022-11-13T07:57:48.909Z,9.80
2022-11-13T08:02:52.523Z,10.40
2022-11-13T08:07:55.736Z,8.30
2022-11-13T08:13:03.520Z,9.00
2022-11-13T08:18:07.258Z,9.60
2022-11-13T08:23:10.375Z,8.20
2022-11-13T08:28:14.430Z,10.50
2022-11-13T08:33:17.676Z,7.30
2022-11-13T08:38:20.940Z,7.50
2022-11-13T08:43:24.258Z,7.10
2022-11-13T08:48:27.773Z,7.10
2022-11-13T08:53:34.658Z,6.40
2022-11-13T08:58:37.865Z,6.90
2022-11-13T09:03:41.026Z,8.30
2022-11-13T09:08:44.405Z,6.70
2022-11-13T09:13:52.051Z,8.40
2022-11-13T09:18:56.527Z,9.00
2022-11-13T09:24:00.188Z,8.80
2022-11-13T09:29:05.444Z,7.20
2022-11-13T09:34:09.588Z,8.40
2022-11-13T09:39:12.879Z,5.70
2022-11-13T09:44:23.495Z,7.80
2022-11-13T09:49:31.664Z,7.60
2022-11-13T09:54:35.463Z,7.20
2022-11-13T09:59:53.155Z,6.30
2022-11-13T10:05:23.461Z,5.50
2022-11-13T10:10:38.780Z,5.00
2022-11-13T10:15:44.807Z,6.40
2022-11-13T10:20:51.791Z,6.50
2022-11-13T10:26:00.699Z,6.00
2022-11-13T10:31:04.147Z,8.00
2022-11-13T10:36:15.464Z,6.20
2022-11-13T10:41:22.232Z,7.10
2022-11-13T10:46:30.816Z,5.80
2022-11-13T10:51:37.451Z,7.40
2022-11-13T10:56:41.165Z,6.20
2022-11-13T11:01:46.720Z,7.80
2022-11-13T11:07:19.711Z,8.50
2022-11-13T11:12:24.334Z,6.90
2022-11-13T11:17:43.396Z,4.90
2022-11-13T11:22:51.596Z,5.10
2022-11-13T11:28:03.146Z,5.70
2022-11-13T11:33:21.007Z,6.20
2022-11-13T11:38:34.207Z,5.10
2022-11-13T11:44:30.046Z,4.80
2022-11-13T11:49:33.682Z,5.30
2022-11-13T11:54:42.697Z,5.90
2022-11-13T12:00:11.900Z,6.60
2022-11-13T12:05:24.813Z,6.40
2022-11-13T12:10:46.287Z,7.30
2022-11-13T12:15:57.180Z,7.60
2022-11-13T12:21:20.737Z,5.00
2022-11-13T12:26:27.879Z,5.40
2022-11-13T12:32:05.465Z,4.40
2022-11-13T12:37:44.842Z,4.80
2022-11-13T12:43:27.233Z,6.30
2022-11-13T12:48:39.329Z,4.40
2022-11-13T12:53:48.926Z,3.90
2022-11-13T13:05:01.640Z,4.40
2022-11-13T13:10:24.287Z,4.40
2022-11-13T13:15:40.932Z,7.70
2022-11-13T13:21:01.951Z,6.70
2022-11-13T13:26:31.610Z,9.20
2022-11-13T13:31:43.714Z,3.80
2022-11-13T13:36:52.813Z,5.30
2022-11-13T13:42:30.634Z,3.80
2022-11-13T13:47:40.643Z,4.90
2022-11-13T13:52:45.587Z,5.20
2022-11-13T13:57:49.108Z,4.90
2022-11-13T14:02:53.698Z,5.20
2022-11-13T14:07:58.199Z,4.30
2022-11-13T14:13:02.530Z,6.90
2022-11-13T14:18:17.545Z,4.30
2022-11-13T14:23:34.588Z,4.50
2022-11-13T14:28:55.639Z,7.30
2022-11-13T14:34:10.769Z,7.00
2022-11-13T14:39:32.161Z,11.50
2022-11-13T14:44:36.073Z,8.00
2022-11-13T14:49:39.311Z,8.30
2022-11-13T14:55:12.982Z,12.30
2022-11-13T15:00:15.670Z,7.30
2022-11-13T15:05:18.906Z,6.30
2022-11-13T15:10:25.523Z,6.10
2022-11-13T15:15:30.855Z,3.50
2022-11-13T15:20:34.999Z,9.20
2022-11-13T15:25:38.161Z,6.50
2022-11-13T15:30:41.542Z,3.20
2022-11-13T15:35:44.748Z,10.00
2022-11-13T15:40:48.521Z,4.80
2022-11-13T15:45:51.700Z,3.80
2022-11-13T15:50:54.934Z,7.90
2022-11-13T15:56:03.173Z,6.60
2022-11-13T16:01:06.612Z,5.20
2022-11-13T16:06:17.531Z,7.20
2022-11-13T16:11:21.261Z,9.10
2022-11-13T16:16:34.269Z,8.90
2022-11-13T16:21:38.234Z,9.30
2022-11-13T16:26:48.121Z,9.30
2022-11-13T16:31:51.609Z,9.20
2022-11-13T16:36:54.866Z,6.60
2022-11-13T16:41:58.154Z,7.90
2022-11-13T16:47:01.345Z,7.40
2022-11-13T16:52:04.836Z,5.80
2022-11-13T16:57:14.202Z,7.80
2022-11-13T17:02:18.527Z,8.00
2022-11-13T17:07:22.321Z,9.50
2022-11-13T17:12:25.705Z,7.30
2022-11-13T17:17:29.104Z,6.70
2022-11-13T17:22:32.629Z,8.60
2022-11-13T17:27:35.887Z,8.50
2022-11-13T17:32:39.216Z,9.50
2022-11-13T17:37:42.944Z,9.10
2022-11-13T17:42:48.167Z,8.40
2022-11-13T17:47:51.524Z,7.80
2022-11-13T17:52:54.825Z,8.30
2022-11-13T17:58:01.527Z,8.80
2022-11-13T18:03:04.894Z,6.80
2022-11-13T18:08:08.283Z,9.50
2022-11-13T18:13:11.519Z,14.10
2022-11-13T18:18:15.067Z,15.00
2022-11-13T18:23:18.265Z,12.80
2022-11-13T18:28:21.591Z,12.10
2022-11-13T18:33:24.759Z,12.90
2022-11-13T18:38:28.402Z,18.90
2022-11-13T18:43:33.470Z,10.90
2022-11-13T18:48:39.584Z,11.40
2022-11-13T18:53:47.966Z,15.80
2022-11-13T18:58:53.474Z,13.50
2022-11-13T19:09:24.076Z,13.50
2022-11-13T19:14:28.416Z,17.60
2022-11-13T19:19:31.997Z,15.30
2022-11-13T19:24:35.751Z,21.00
2022-11-13T19:29:39.194Z,11.00
2022-11-13T19:34:46.485Z,11.10
2022-11-13T19:39:50.484Z,10.40
2022-11-13T19:44:53.627Z,10.30
2022-11-13T19:49:57.057Z,10.60
2022-11-13T19:55:00.489Z,10.30
2022-11-13T20:00:05.805Z,9.10
2022-11-13T20:05:09.768Z,9.40
2022-11-13T20:10:13.721Z,10.10
2022-11-13T20:15:16.985Z,12.70
2022-11-13T20:20:20.275Z,11.40
2022-11-13T20:25:23.496Z,7.70
2022-11-13T20:30:26.789Z,6.10
2022-11-13T20:35:30.372Z,5.90
2022-11-13T20:40:33.605Z,6.00
2022-11-13T20:45:36.847Z,5.40
2022-11-13T20:50:40.509Z,6.10
2022-11-13T20:55:43.775Z,6.00
2022-11-13T21:00:47.059Z,4.80
2022-11-13T21:05:50.268Z,4.20
2022-11-13T21:10:53.874Z,4.20
2022-11-13T21:15:57.091Z,6.00
2022-11-13T21:21:12.093Z,5.10
2022-11-13T21:26:15.915Z,5.30
2022-11-13T21:31:21.243Z,5.70
2022-11-13T21:36:27.225Z,4.40
2022-11-13T21:41:30.401Z,5.40
2022-11-13T21:46:36.429Z,5.50
2022-11-13T21:51:42.013Z,6.50
2022-11-13T21:56:45.326Z,9.00
2022-11-13T22:01:48.630Z,6.90
2022-11-13T22:06:52.624Z,7.40
2022-11-13T22:11:55.925Z,9.10
2022-11-13T22:16:59.175Z,8.50
2022-11-13T22:22:02.366Z,6.60
2022-11-13T22:27:05.544Z,6.70
2022-11-13T22:32:08.850Z,6.80
2022-11-13T22:37:12.270Z,6.80
2022-11-13T22:42:15.679Z,6.90
2022-11-13T22:47:18.887Z,5.70
2022-11-13T22:52:22.185Z,6.80
2022-11-13T22:57:25.509Z,6.70
2022-11-13T23:02:28.841Z,8.50
2022-11-13T23:07:32.100Z,8.10
2022-11-13T23:12:35.389Z,7.60
2022-11-13T23:17:39.101Z,6.50
2022-11-13T23:22:42.340Z,6.90
2022-11-13T23:27:46.159Z,6.40
2022-11-13T23:32:49.546Z,6.70
2022-11-13T23:37:53.500Z,6.50
2022-11-13T23:42:56.760Z,6.40
2022-11-13T23:48:01.101Z,6.90
2022-11-13T23:53:04.676Z,6.20
2022-11-13T23:58:12.170Z,6.60
